createdAt,value
2022-08-23T00:00:26.255Z,7.00
2022-08-23T00:02:54.446Z,5.40
2022-08-23T00:05:22.528Z,7.80
2022-08-23T00:07:50.315Z,5.60
2022-08-23T00:10:18.001Z,7.00
2022-08-23T00:12:45.762Z,4.00
2022-08-23T00:15:13.508Z,7.00
2022-08-23T00:17:42.456Z,7.20
2022-08-23T00:20:10.165Z,4.00
2022-08-23T00:22:37.907Z,7.00
2022-08-23T00:25:05.726Z,7.40
2022-08-23T00:27:33.843Z,8.00
2022-08-23T00:30:01.617Z,7.80
2022-08-23T00:32:29.502Z,10.00
2022-08-23T00:34:57.287Z,8.00
2022-08-23T00:37:25.131Z,8.00
2022-08-23T00:39:52.924Z,7.00
2022-08-23T00:42:43.692Z,7.40
2022-08-23T00:45:29.213Z,5.00
2022-08-23T00:47:58.131Z,7.40
2022-08-23T00:50:25.953Z,7.40
2022-08-23T00:52:53.657Z,6.60
2022-08-23T00:55:21.782Z,8.00
2022-08-23T00:57:49.527Z,8.00
2022-08-23T01:00:17.365Z,5.20
2022-08-23T01:02:45.148Z,4.60
2022-08-23T01:05:13.041Z,5.40
2022-08-23T01:07:41.612Z,7.00
2022-08-23T01:10:09.786Z,6.60
2022-08-23T01:12:47.900Z,7.40
2022-08-23T01:15:16.374Z,6.80
2022-08-23T01:17:44.352Z,6.80
2022-08-23T01:20:12.151Z,6.20
2022-08-23T01:22:42.237Z,6.80
2022-08-23T01:25:10.001Z,6.80
2022-08-23T01:27:38.242Z,5.40
2022-08-23T01:30:05.998Z,7.20
2022-08-23T01:32:33.858Z,7.00
2022-08-23T01:35:01.639Z,8.20
2022-08-23T01:37:29.388Z,3.20
2022-08-23T01:39:57.536Z,7.00
2022-08-23T01:42:25.464Z,8.00
2022-08-23T01:44:53.219Z,7.00
2022-08-23T01:47:20.974Z,8.00
2022-08-23T01:49:49.073Z,4.60
2022-08-23T01:52:17.412Z,8.20
2022-08-23T01:54:45.226Z,7.80
2022-08-23T01:57:13.096Z,7.00
2022-08-23T01:59:40.837Z,5.80
2022-08-23T02:02:08.757Z,6.60
2022-08-23T02:04:36.529Z,7.40
2022-08-23T02:07:04.360Z,7.00
2022-08-23T02:09:32.617Z,5.20
2022-08-23T02:12:00.928Z,6.80
2022-08-23T02:14:28.716Z,7.60
2022-08-23T02:17:03.420Z,5.40
2022-08-23T02:19:33.053Z,7.00
2022-08-23T02:22:00.753Z,8.00
2022-08-23T02:24:28.503Z,4.60
2022-08-23T02:26:57.130Z,9.60
2022-08-23T02:29:25.054Z,9.20
2022-08-23T02:31:52.806Z,5.00
2022-08-23T02:34:20.846Z,5.80
2022-08-23T02:36:48.739Z,9.00
2022-08-23T02:39:16.733Z,7.40
2022-08-23T02:41:44.524Z,7.00
2022-08-23T02:44:12.369Z,6.00
2022-08-23T02:46:40.187Z,8.40
2022-08-23T02:49:08.249Z,8.60
2022-08-23T02:51:36.047Z,9.00
2022-08-23T02:54:03.813Z,6.40
2022-08-23T02:56:32.209Z,7.00
2022-08-23T02:59:00.467Z,6.40
2022-08-23T03:01:28.859Z,6.60
2022-08-23T03:03:56.720Z,9.20
2022-08-23T03:06:26.322Z,6.80
2022-08-23T03:08:54.745Z,8.40
2022-08-23T03:11:22.686Z,9.40
2022-08-23T03:13:50.522Z,8.40
2022-08-23T03:16:18.371Z,6.40
2022-08-23T03:18:46.651Z,8.80
2022-08-23T03:21:14.343Z,7.00
2022-08-23T03:23:42.210Z,7.00
2022-08-23T03:26:09.887Z,7.60
2022-08-23T03:28:38.084Z,7.00
2022-08-23T03:31:06.203Z,6.40
2022-08-23T03:33:33.888Z,6.40
2022-08-23T03:36:01.684Z,6.00
2022-08-23T03:38:29.444Z,2.60
2022-08-23T03:40:57.400Z,5.60
2022-08-23T03:43:25.355Z,9.00
2022-08-23T03:45:53.545Z,7.00
2022-08-23T03:48:21.447Z,4.00
2022-08-23T03:50:49.223Z,7.00
2022-08-23T03:53:17.564Z,4.00
2022-08-23T03:55:45.601Z,7.40
2022-08-23T03:58:13.448Z,5.20
2022-08-23T04:00:41.196Z,4.00
2022-08-23T04:03:09.007Z,6.00
2022-08-23T04:05:37.130Z,5.60
2022-08-23T04:08:05.119Z,7.00
2022-08-23T04:10:33.465Z,7.40
2022-08-23T04:13:01.743Z,4.40
2022-08-23T04:15:29.553Z,6.00
2022-08-23T04:17:57.312Z,6.00
2022-08-23T04:20:25.552Z,6.20
2022-08-23T04:22:55.203Z,7.00
2022-08-23T04:25:34.592Z,6.20
2022-08-23T04:28:03.520Z,6.40
2022-08-23T04:30:32.454Z,7.40
2022-08-23T04:33:01.622Z,4.80
2022-08-23T04:35:30.121Z,6.00
2022-08-23T04:37:57.911Z,7.00
2022-08-23T04:40:43.392Z,8.60
2022-08-23T04:43:11.141Z,6.50
2022-08-23T04:45:39.315Z,6.60
2022-08-23T04:48:11.999Z,7.00
2022-08-23T04:50:40.426Z,7.00
2022-08-23T04:53:08.220Z,5.80
2022-08-23T04:55:36.439Z,6.00
2022-08-23T04:58:06.261Z,10.00
2022-08-23T05:00:34.040Z,9.00
2022-08-23T05:03:01.876Z,6.40
2022-08-23T05:05:29.572Z,6.00
2022-08-23T05:07:57.299Z,7.00
2022-08-23T05:10:25.408Z,8.00
2022-08-23T05:12:53.122Z,7.00
2022-08-23T05:15:20.881Z,5.60
2022-08-23T05:17:48.994Z,4.00
2022-08-23T05:20:16.771Z,6.40
2022-08-23T05:22:44.526Z,6.60
2022-08-23T05:25:12.287Z,6.00
2022-08-23T05:27:40.477Z,6.00
2022-08-23T05:30:08.275Z,6.00
2022-08-23T05:32:43.172Z,5.80
2022-08-23T05:35:10.984Z,6.20
2022-08-23T05:37:38.763Z,7.40
2022-08-23T05:40:07.147Z,3.60
2022-08-23T05:42:35.119Z,6.80
2022-08-23T05:45:05.447Z,7.00
2022-08-23T05:47:34.012Z,6.00
2022-08-23T05:50:02.134Z,5.20
2022-08-23T05:52:29.905Z,7.40
2022-08-23T05:54:57.608Z,6.20
2022-08-23T05:57:25.703Z,4.00
2022-08-23T05:59:53.406Z,5.40
2022-08-23T06:02:21.207Z,5.00
2022-08-23T06:04:48.967Z,8.00
2022-08-23T06:07:17.094Z,4.80
2022-08-23T06:09:44.854Z,5.80
2022-08-23T06:12:12.673Z,5.00
2022-08-23T06:14:40.420Z,5.80
2022-08-23T06:17:08.916Z,5.00
2022-08-23T06:19:36.599Z,5.80
2022-08-23T06:22:04.398Z,7.20
2022-08-23T06:24:32.402Z,5.20
2022-08-23T06:27:00.220Z,7.00
2022-08-23T06:29:27.938Z,7.00
2022-08-23T06:31:56.750Z,5.00
2022-08-23T06:34:24.472Z,7.00
2022-08-23T06:36:53.063Z,9.00
2022-08-23T06:39:20.828Z,8.40
2022-08-23T06:41:49.589Z,7.00
2022-08-23T06:44:17.709Z,5.80
2022-08-23T06:46:45.717Z,6.20
2022-08-23T06:49:13.956Z,7.60
2022-08-23T06:51:42.247Z,5.20
2022-08-23T06:54:10.076Z,5.00
2022-08-23T06:56:40.083Z,5.80
2022-08-23T06:59:07.916Z,5.00
2022-08-23T07:01:48.979Z,6.00
2022-08-23T07:04:16.872Z,5.00
2022-08-23T07:06:44.964Z,6.00
2022-08-23T07:09:12.803Z,5.00
2022-08-23T07:11:40.726Z,6.40
2022-08-23T07:14:08.859Z,6.00
2022-08-23T07:16:36.775Z,5.80
2022-08-23T07:19:04.592Z,5.00
2022-08-23T07:21:32.708Z,4.80
2022-08-23T07:24:00.478Z,5.80
2022-08-23T07:26:28.325Z,5.00
2022-08-23T07:28:57.724Z,6.00
2022-08-23T07:31:27.492Z,6.60
2022-08-23T07:33:55.394Z,6.00
2022-08-23T07:36:27.998Z,2.80
2022-08-23T07:38:55.961Z,5.40
2022-08-23T07:41:24.269Z,6.40
2022-08-23T07:43:52.407Z,7.00
2022-08-23T07:46:20.201Z,7.00
2022-08-23T07:48:54.345Z,5.80
2022-08-23T07:51:23.081Z,6.00
2022-08-23T07:53:51.072Z,7.00
2022-08-23T07:56:18.798Z,5.80
2022-08-23T07:58:46.566Z,6.60
2022-08-23T08:01:15.941Z,6.00
2022-08-23T08:03:44.013Z,6.00
2022-08-23T08:06:12.775Z,6.60
2022-08-23T08:08:41.833Z,6.20
2022-08-23T08:11:09.543Z,6.20
2022-08-23T08:13:38.326Z,7.80
2022-08-23T08:16:06.312Z,7.00
2022-08-23T08:18:34.485Z,7.20
2022-08-23T08:21:02.453Z,5.20
2022-08-23T08:23:30.575Z,6.00
2022-08-23T08:25:58.318Z,5.60
2022-08-23T08:28:26.062Z,7.60
2022-08-23T08:30:53.806Z,7.00
2022-08-23T08:33:21.574Z,6.80
2022-08-23T08:35:57.628Z,6.00
2022-08-23T08:38:30.761Z,7.20
2022-08-23T08:40:58.559Z,4.80
2022-08-23T08:43:26.386Z,6.00
2022-08-23T08:45:59.113Z,6.20
2022-08-23T08:48:26.914Z,7.00
2022-08-23T08:50:54.648Z,7.00
2022-08-23T08:53:22.411Z,7.00
2022-08-23T08:55:50.114Z,7.00
2022-08-23T08:58:20.968Z,6.60
2022-08-23T09:00:50.712Z,8.00
2022-08-23T09:03:21.702Z,6.60
2022-08-23T09:05:49.506Z,6.60
2022-08-23T09:08:17.525Z,7.40
2022-08-23T09:10:45.223Z,7.00
2022-08-23T09:13:12.988Z,8.00
2022-08-23T09:15:41.214Z,7.00
2022-08-23T09:18:09.225Z,7.80
2022-08-23T09:20:37.141Z,7.00
2022-08-23T09:23:05.741Z,8.60
2022-08-23T09:25:34.008Z,8.00
2022-08-23T09:28:02.094Z,7.00
2022-08-23T09:30:30.196Z,7.60
2022-08-23T09:32:58.005Z,6.40
2022-08-23T09:35:25.774Z,6.20
2022-08-23T09:37:53.943Z,6.40
2022-08-23T09:40:21.615Z,6.20
2022-08-23T09:42:49.405Z,6.20
2022-08-23T09:45:17.043Z,7.20
2022-08-23T09:47:45.076Z,6.40
2022-08-23T09:50:12.788Z,6.00
2022-08-23T09:52:40.473Z,6.00
2022-08-23T09:55:08.114Z,7.00
2022-08-23T09:57:36.098Z,7.00
2022-08-23T10:00:03.857Z,6.00
2022-08-23T10:02:31.817Z,7.00
2022-08-23T10:04:59.910Z,5.60
2022-08-23T10:07:31.135Z,7.00
2022-08-23T10:09:58.954Z,6.40
2022-08-23T10:12:26.575Z,8.00
2022-08-23T10:14:54.942Z,7.00
2022-08-23T10:17:22.620Z,5.00
2022-08-23T10:19:50.420Z,7.20
2022-08-23T10:22:18.041Z,6.60
2022-08-23T10:24:46.153Z,7.80
2022-08-23T10:27:27.617Z,3.80
2022-08-23T10:29:55.812Z,7.80
2022-08-23T10:32:23.511Z,7.20
2022-08-23T10:34:51.211Z,6.80
2022-08-23T10:37:19.254Z,7.00
2022-08-23T10:39:47.512Z,6.40
2022-08-23T10:42:15.401Z,7.00
2022-08-23T10:44:43.396Z,6.20
2022-08-23T10:47:11.201Z,6.00
2022-08-23T10:49:39.420Z,7.00
2022-08-23T10:52:07.419Z,6.80
2022-08-23T10:54:46.173Z,6.40
2022-08-23T10:57:13.846Z,6.20
2022-08-23T10:59:41.569Z,6.20
2022-08-23T11:02:09.304Z,6.00
2022-08-23T11:04:37.123Z,5.40
2022-08-23T11:07:05.065Z,6.00
2022-08-23T11:09:32.787Z,6.60
2022-08-23T11:12:00.567Z,6.20
2022-08-23T11:14:28.181Z,8.00
2022-08-23T11:16:56.233Z,6.80
2022-08-23T11:19:24.002Z,7.00
2022-08-23T11:21:51.943Z,7.00
2022-08-23T11:24:22.562Z,5.40
2022-08-23T11:26:51.663Z,6.20
2022-08-23T11:29:19.454Z,6.80
2022-08-23T11:31:47.662Z,7.00
2022-08-23T11:34:15.916Z,6.00
2022-08-23T11:36:44.356Z,6.20
2022-08-23T11:39:11.974Z,7.00
2022-08-23T11:41:39.769Z,6.40
2022-08-23T11:44:07.779Z,5.80
2022-08-23T11:46:42.747Z,5.40
2022-08-23T11:49:10.353Z,5.20
2022-08-23T11:51:38.456Z,5.20
2022-08-23T11:54:06.122Z,6.00
2022-08-23T11:56:33.763Z,6.20
2022-08-23T11:59:02.589Z,5.20
2022-08-23T12:01:36.395Z,6.20
2022-08-23T12:04:09.984Z,6.20
2022-08-23T12:06:39.093Z,5.40
2022-08-23T12:09:11.377Z,6.60
2022-08-23T12:11:39.143Z,6.00
2022-08-23T12:14:06.945Z,5.80
2022-08-23T12:16:36.304Z,5.20
2022-08-23T12:19:06.876Z,7.00
2022-08-23T12:21:37.345Z,5.40
2022-08-23T12:24:05.496Z,5.40
2022-08-23T12:26:33.196Z,4.60
2022-08-23T12:29:01.555Z,5.00
2022-08-23T12:31:29.294Z,6.00
2022-08-23T12:33:57.048Z,6.00
2022-08-23T12:36:25.184Z,4.00
2022-08-23T12:38:53.687Z,5.60
2022-08-23T12:41:21.440Z,4.20
2022-08-23T12:43:50.369Z,3.80
2022-08-23T12:46:18.976Z,5.40
2022-08-23T12:48:46.763Z,6.00
2022-08-23T12:51:17.236Z,5.00
2022-08-23T12:53:45.714Z,6.00
2022-08-23T12:56:13.658Z,5.40
2022-08-23T12:58:41.793Z,7.80
2022-08-23T13:01:09.556Z,6.00
2022-08-23T13:03:37.345Z,4.00
2022-08-23T13:06:05.119Z,4.20
2022-08-23T13:08:34.857Z,4.00
2022-08-23T13:11:07.823Z,4.40
2022-08-23T13:13:36.533Z,4.40
2022-08-23T13:16:04.344Z,3.80
2022-08-23T13:18:32.112Z,5.00
2022-08-23T13:20:59.836Z,4.20
2022-08-23T13:23:27.899Z,4.40
2022-08-23T13:25:56.152Z,5.00
2022-08-23T13:28:23.859Z,5.00
2022-08-23T13:30:52.387Z,4.00
2022-08-23T13:33:20.173Z,5.00
2022-08-23T13:35:49.735Z,4.00
2022-08-23T13:38:21.446Z,5.80
2022-08-23T13:40:49.802Z,4.00
2022-08-23T13:43:17.539Z,3.00
2022-08-23T13:45:45.365Z,5.00
2022-08-23T13:48:14.158Z,5.00
2022-08-23T13:50:41.822Z,4.00
2022-08-23T13:53:16.709Z,4.80
2022-08-23T13:55:46.287Z,5.00
2022-08-23T13:58:14.062Z,4.00
2022-08-23T14:00:45.768Z,4.80
2022-08-23T14:03:22.856Z,5.00
2022-08-23T14:05:50.593Z,4.20
2022-08-23T14:08:18.231Z,4.20
2022-08-23T14:10:46.712Z,4.80
2022-08-23T14:13:14.410Z,3.40
2022-08-23T14:15:58.900Z,3.40
2022-08-23T14:18:29.959Z,6.20
2022-08-23T14:20:57.792Z,5.00
2022-08-23T14:23:26.215Z,4.20
2022-08-23T14:25:53.971Z,5.00
2022-08-23T14:28:21.703Z,3.00
2022-08-23T14:30:51.815Z,5.80
2022-08-23T14:33:20.727Z,5.60
2022-08-23T14:35:48.427Z,4.00
2022-08-23T14:38:16.441Z,6.00
2022-08-23T14:40:47.685Z,4.80
2022-08-23T14:43:15.523Z,5.20
2022-08-23T14:45:43.454Z,5.00
2022-08-23T14:48:12.505Z,4.20
2022-08-23T14:50:41.205Z,4.00
2022-08-23T14:53:08.946Z,5.00
2022-08-23T14:55:36.979Z,4.00
2022-08-23T14:58:05.598Z,5.40
2022-08-23T15:00:33.386Z,4.00
2022-08-23T15:03:01.145Z,4.80
2022-08-23T15:05:29.050Z,2.40
2022-08-23T15:07:56.670Z,4.40
2022-08-23T15:13:20.962Z,4.20
2022-08-23T15:15:54.078Z,4.00
2022-08-23T15:18:22.020Z,5.00
2022-08-23T15:20:51.288Z,4.20
2022-08-23T15:23:20.168Z,4.00
2022-08-23T15:25:49.846Z,4.00
2022-08-23T15:28:17.810Z,4.40
2022-08-23T15:30:45.973Z,6.00
2022-08-23T15:33:13.785Z,4.60
2022-08-23T15:35:41.835Z,5.40
2022-08-23T15:38:09.600Z,5.20
2022-08-23T15:40:37.565Z,5.80
2022-08-23T15:43:05.384Z,4.00
2022-08-23T15:45:33.199Z,5.00
2022-08-23T15:48:01.440Z,4.40
2022-08-23T15:50:31.129Z,4.80
2022-08-23T15:52:59.337Z,2.20
2022-08-23T15:55:27.304Z,5.00
2022-08-23T15:57:55.086Z,5.60
2022-08-23T16:00:23.174Z,5.00
2022-08-23T16:03:18.726Z,6.20
2022-08-23T16:05:38.512Z,4.00
2022-08-23T16:08:06.236Z,6.00
2022-08-23T16:10:34.270Z,4.20
2022-08-23T16:13:02.172Z,6.00
2022-08-23T16:15:29.895Z,5.80
2022-08-23T16:17:57.642Z,3.20
2022-08-23T16:20:25.795Z,5.60
2022-08-23T16:22:53.604Z,5.60
2022-08-23T16:25:21.333Z,0.80
2022-08-23T16:27:49.152Z,6.00
2022-08-23T16:30:16.821Z,6.80
2022-08-23T16:32:44.539Z,7.00
2022-08-23T16:35:12.213Z,5.40
2022-08-23T16:37:39.986Z,5.40
2022-08-23T16:40:08.226Z,5.20
2022-08-23T16:42:35.953Z,6.60
2022-08-23T16:45:03.654Z,6.00
2022-08-23T16:47:31.620Z,6.00
2022-08-23T16:49:59.354Z,3.00
2022-08-23T16:52:34.533Z,5.00
2022-08-23T16:55:03.666Z,6.00
2022-08-23T16:57:31.301Z,6.00
2022-08-23T16:59:58.997Z,6.60
2022-08-23T17:02:26.775Z,5.40
2022-08-23T17:04:54.485Z,5.40
2022-08-23T17:07:22.275Z,4.20
2022-08-23T17:09:50.290Z,5.40
2022-08-23T17:12:18.036Z,5.40
2022-08-23T17:14:45.779Z,6.00
2022-08-23T17:17:13.500Z,7.00
2022-08-23T17:19:41.558Z,6.00
2022-08-23T17:22:09.540Z,6.00
2022-08-23T17:24:37.515Z,6.80
2022-08-23T17:27:05.286Z,4.40
2022-08-23T17:29:34.602Z,6.20
2022-08-23T17:32:05.426Z,7.00
2022-08-23T17:34:33.187Z,5.40
2022-08-23T17:37:00.908Z,5.00
2022-08-23T17:39:29.371Z,6.00
2022-08-23T17:41:57.898Z,7.60
2022-08-23T17:44:25.671Z,5.00
2022-08-23T17:46:53.608Z,6.00
2022-08-23T17:49:21.363Z,6.40
2022-08-23T17:51:49.495Z,4.40
2022-08-23T17:54:17.276Z,5.40
2022-08-23T17:56:50.041Z,5.80
2022-08-23T17:59:18.613Z,7.00
2022-08-23T18:01:46.511Z,6.00
2022-08-23T18:04:15.314Z,6.00
2022-08-23T18:06:43.089Z,6.40
2022-08-23T18:09:11.148Z,6.00
2022-08-23T18:11:39.256Z,6.40
2022-08-23T18:14:07.073Z,5.00
2022-08-23T18:16:35.797Z,6.80
2022-08-23T18:19:04.073Z,4.40
2022-08-23T18:21:31.893Z,6.00
2022-08-23T18:23:59.621Z,5.20
2022-08-23T18:26:47.388Z,6.00
2022-08-23T18:29:15.836Z,6.20
2022-08-23T18:31:43.608Z,5.20
2022-08-23T18:34:11.447Z,6.00
2022-08-23T18:36:39.247Z,5.00
2022-08-23T18:39:07.658Z,7.00
2022-08-23T18:41:35.277Z,6.80
2022-08-23T18:44:03.537Z,5.00
2022-08-23T18:46:33.812Z,5.00
2022-08-23T18:49:01.957Z,7.00
2022-08-23T18:51:29.854Z,5.40
2022-08-23T18:53:57.951Z,7.00
2022-08-23T18:56:25.873Z,7.40
2022-08-23T18:58:53.924Z,5.20
2022-08-23T19:01:21.822Z,6.60
2022-08-23T19:03:49.673Z,6.20
2022-08-23T19:06:17.390Z,6.20
2022-08-23T19:08:45.293Z,8.00
2022-08-23T19:11:12.993Z,7.00
2022-08-23T19:13:40.717Z,6.60
2022-08-23T19:16:08.486Z,6.80
2022-08-23T19:18:36.590Z,6.60
2022-08-23T19:21:04.279Z,7.80
2022-08-23T19:23:32.011Z,7.60
2022-08-23T19:25:59.648Z,7.00
2022-08-23T19:28:27.730Z,8.80
2022-08-23T19:30:55.447Z,7.00
2022-08-23T19:33:23.289Z,6.80
2022-08-23T19:35:50.942Z,6.60
2022-08-23T19:38:20.966Z,7.00
2022-08-23T19:40:49.245Z,8.00
2022-08-23T19:43:18.313Z,8.00
2022-08-23T19:45:46.091Z,10.00
2022-08-23T19:48:13.893Z,6.20
2022-08-23T19:50:42.168Z,7.80
2022-08-23T19:53:09.785Z,10.00
2022-08-23T19:55:37.533Z,7.60
2022-08-23T19:58:06.071Z,8.00
2022-08-23T20:00:34.098Z,3.00
2022-08-23T20:03:01.989Z,8.20
2022-08-23T20:05:29.789Z,7.80
2022-08-23T20:07:57.507Z,6.00
2022-08-23T20:10:25.325Z,7.60
2022-08-23T20:12:53.096Z,6.40
2022-08-23T20:15:20.727Z,8.20
2022-08-23T20:17:48.735Z,10.00
2022-08-23T20:20:16.496Z,8.40
2022-08-23T20:23:02.087Z,7.60
2022-08-23T20:25:30.902Z,5.60
2022-08-23T20:27:58.690Z,6.20
2022-08-23T20:30:26.456Z,7.00
2022-08-23T20:32:55.037Z,8.60
2022-08-23T20:35:22.802Z,9.00
2022-08-23T20:37:50.543Z,7.80
2022-08-23T20:40:18.625Z,7.40
2022-08-23T20:42:46.290Z,7.20
2022-08-23T20:45:14.024Z,7.80
2022-08-23T20:47:41.775Z,8.40
2022-08-23T20:50:09.483Z,10.40
2022-08-23T20:52:37.183Z,10.00
2022-08-23T20:55:09.547Z,11.40
2022-08-23T20:57:39.102Z,7.40
2022-08-23T21:00:07.503Z,11.20
2022-08-23T21:02:35.277Z,10.80
2022-08-23T21:05:06.343Z,7.40
2022-08-23T21:07:34.408Z,9.80
2022-08-23T21:10:02.310Z,9.20
2022-08-23T21:12:30.109Z,9.60
2022-08-23T21:14:57.751Z,8.80
2022-08-23T21:17:25.444Z,10.00
2022-08-23T21:19:53.393Z,9.20
2022-08-23T21:22:21.138Z,8.40
2022-08-23T21:24:48.992Z,10.60
2022-08-23T21:27:16.666Z,9.20
2022-08-23T21:29:44.722Z,7.80
2022-08-23T21:32:12.590Z,8.80
2022-08-23T21:34:40.246Z,8.00
2022-08-23T21:37:07.953Z,8.00
2022-08-23T21:39:35.895Z,10.00
2022-08-23T21:42:14.852Z,8.80
2022-08-23T21:44:43.121Z,11.40
2022-08-23T21:47:11.215Z,9.00
2022-08-23T21:49:39.144Z,10.00
2022-08-23T21:52:06.870Z,10.00
2022-08-23T21:54:35.082Z,10.00
2022-08-23T21:57:03.139Z,12.00
2022-08-23T21:59:30.902Z,10.80
2022-08-23T22:01:58.629Z,9.00
2022-08-23T22:04:26.473Z,10.00
2022-08-23T22:06:56.055Z,9.20
2022-08-23T22:09:31.500Z,8.00
2022-08-23T22:12:00.345Z,10.00
2022-08-23T22:14:31.457Z,8.60
2022-08-23T22:16:59.897Z,9.00
2022-08-23T22:19:27.646Z,10.00
2022-08-23T22:21:55.463Z,9.00
2022-08-23T22:24:25.771Z,11.80
2022-08-23T22:26:54.745Z,6.20
2022-08-23T22:29:22.505Z,0.00
2022-08-23T22:31:50.190Z,9.60
2022-08-23T22:34:18.072Z,6.20
2022-08-23T22:36:51.428Z,9.00
2022-08-23T22:39:20.638Z,8.80
2022-08-23T22:41:48.302Z,10.00
2022-08-23T22:44:16.000Z,9.00
2022-08-23T22:46:44.103Z,10.20
2022-08-23T22:49:11.874Z,9.00
2022-08-23T22:51:41.549Z,12.20
2022-08-23T22:54:09.331Z,10.40
2022-08-23T22:56:37.901Z,10.00
2022-08-23T22:59:05.994Z,9.80
2022-08-23T23:01:34.156Z,10.00
2022-08-23T23:04:02.245Z,12.00
2022-08-23T23:06:30.007Z,13.00
2022-08-23T23:08:58.027Z,12.00
2022-08-23T23:11:25.697Z,7.60
2022-08-23T23:13:53.608Z,10.40
2022-08-23T23:16:21.314Z,12.80
2022-08-23T23:19:09.438Z,12.00
2022-08-23T23:21:36.032Z,9.00
2022-08-23T23:24:04.299Z,10.20
2022-08-23T23:26:31.932Z,10.80
2022-08-23T23:28:59.593Z,8.80
2022-08-23T23:31:27.211Z,8.00
2022-08-23T23:33:54.996Z,12.40
2022-08-23T23:36:22.655Z,8.00
2022-08-23T23:38:50.611Z,8.40
2022-08-23T23:41:18.314Z,12.00
2022-08-23T23:43:46.069Z,11.20
2022-08-23T23:46:13.759Z,12.40
2022-08-23T23:48:41.922Z,9.80
2022-08-23T23:51:09.554Z,13.80
2022-08-23T23:53:37.294Z,12.00
2022-08-23T23:56:04.965Z,9.80
2022-08-23T23:58:32.909Z,11.80
